Time;durP1;ratioP1;P1;durP2;ratioP2;P2;SDS_P1;SDS_P2;PMS_P1;PMS_P2;Temp;Humidity;BMP_temperature;BMP_pressure;BME280_temperature;BME280_humidity;BME280_pressure;Samples;Min_cycle;Max_cycle;Signal;HPM_P1;HPM_P2
2022/06/27 00:00:48;;;;;;;11.57;10.65;;;20.50;99.90;;;;;;5091529;28;20407;-83
2022/06/27 00:03:14;;;;;;;12.23;11.23;;;20.50;99.90;;;;;;5090257;28;20484;-85
2022/06/27 00:05:40;;;;;;;12.47;11.47;;;20.40;99.90;;;;;;5091676;28;20368;-84
2022/06/27 00:08:06;;;;;;;11.93;10.90;;;20.40;99.90;;;;;;5089978;28;20393;-84
2022/06/27 00:10:32;;;;;;;11.70;10.80;;;20.40;99.90;;;;;;5089561;28;20385;-83
2022/06/27 00:12:58;;;;;;;12.40;11.40;;;20.30;99.90;;;;;;5089616;28;20411;-84
2022/06/27 00:15:23;;;;;;;12.73;11.70;;;20.30;99.90;;;;;;5073378;28;20377;-85
2022/06/27 00:17:49;;;;;;;13.65;12.27;;;20.40;99.90;;;;;;5091010;28;20961;-85
2022/06/27 00:20:15;;;;;;;12.68;11.65;;;20.30;99.90;;;;;;5089687;28;20394;-85
2022/06/27 00:22:41;;;;;;;12.10;11.17;;;20.30;99.90;;;;;;5091197;28;21215;-84
2022/06/27 00:25:08;;;;;;;12.65;11.57;;;20.30;99.90;;;;;;5090114;28;20381;-85
2022/06/27 00:27:34;;;;;;;12.43;11.27;;;20.40;99.90;;;;;;5091133;28;20469;-85
2022/06/27 00:29:59;;;;;;;12.03;11.00;;;20.40;99.90;;;;;;5089522;28;20409;-84
2022/06/27 00:32:26;;;;;;;11.70;10.70;;;20.40;99.90;;;;;;5091494;28;20381;-84
2022/06/27 00:34:52;;;;;;;11.82;10.90;;;20.40;99.90;;;;;;5070075;28;20880;-85
2022/06/27 00:37:19;;;;;;;12.67;11.57;;;20.30;99.90;;;;;;5070226;28;20732;-86
2022/06/27 00:39:45;;;;;;;12.35;11.45;;;20.30;99.90;;;;;;5089723;28;20485;-84
2022/06/27 00:42:10;;;;;;;11.63;10.73;;;20.20;99.90;;;;;;5090943;28;20472;-84
2022/06/27 00:44:38;;;;;;;12.57;11.48;;;20.10;99.90;;;;;;5089497;28;20868;-84
2022/06/27 00:47:06;;;;;;;12.50;11.45;;;20.10;99.90;;;;;;5089806;28;20423;-85
2022/06/27 00:49:33;;;;;;;13.05;11.95;;;20.10;99.90;;;;;;5089561;28;20392;-84
2022/06/27 00:51:59;;;;;;;13.88;12.68;;;20.00;99.90;;;;;;5088990;28;20886;-85
2022/06/27 00:54:25;;;;;;;13.30;12.18;;;20.00;99.90;;;;;;5090659;28;20399;-84
2022/06/27 00:56:53;;;;;;;12.82;11.82;;;20.10;99.90;;;;;;5089203;28;20373;-84
2022/06/27 00:59:19;;;;;;;12.48;11.45;;;20.10;99.90;;;;;;5090872;28;20376;-84
2022/06/27 01:01:45;;;;;;;13.55;12.43;;;20.10;99.90;;;;;;5088962;28;20385;-84
2022/06/27 01:04:10;;;;;;;13.82;12.63;;;20.10;99.90;;;;;;5090690;28;20400;-85
2022/06/27 01:06:36;;;;;;;12.87;11.87;;;20.10;99.90;;;;;;5090455;28;20743;-85
2022/06/27 01:09:03;;;;;;;14.70;13.38;;;20.00;99.90;;;;;;5090372;28;20376;-84
2022/06/27 01:11:30;;;;;;;12.52;11.57;;;20.00;99.90;;;;;;5090472;28;20368;-84
2022/06/27 01:13:55;;;;;;;13.82;12.52;;;19.90;99.90;;;;;;5089297;28;20377;-84
2022/06/27 01:16:21;;;;;;;13.97;12.77;;;20.00;99.90;;;;;;5088832;28;20392;-84
2022/06/27 01:18:47;;;;;;;13.07;11.98;;;19.90;99.90;;;;;;5089150;28;20870;-83
2022/06/27 01:21:21;;;;;;;12.20;11.20;;;19.90;99.90;;;;;;5090225;28;20411;-84
2022/06/27 01:23:46;;;;;;;12.88;11.88;;;19.90;99.90;;;;;;5089288;28;20552;-86
2022/06/27 01:26:12;;;;;;;12.00;11.10;;;19.80;99.90;;;;;;5089019;28;20861;-86
2022/06/27 01:28:38;;;;;;;12.52;11.43;;;19.80;99.90;;;;;;5088775;28;20922;-84
2022/06/27 01:31:04;;;;;;;13.57;12.47;;;19.70;99.90;;;;;;5088273;28;20400;-85
2022/06/27 01:33:30;;;;;;;12.60;11.70;;;19.70;99.90;;;;;;5088709;28;20443;-84
2022/06/27 01:38:40;;;;;;;13.52;12.43;;;19.70;99.90;;;;;;5090185;28;20391;-84
2022/06/27 01:41:06;;;;;;;13.40;12.30;;;19.60;99.90;;;;;;5089602;28;20854;-84
2022/06/27 01:43:32;;;;;;;13.90;12.80;;;19.60;99.90;;;;;;5088140;28;20400;-85
2022/06/27 01:45:58;;;;;;;13.55;12.45;;;19.60;99.90;;;;;;5088845;28;20918;-83
2022/06/27 01:48:24;;;;;;;13.82;12.73;;;;;;;;;;5089296;28;20476;-83
2022/06/27 01:50:51;;;;;;;14.80;13.60;;;19.50;99.90;;;;;;5088686;28;20379;-84
2022/06/27 01:53:17;;;;;;;14.82;13.63;;;19.50;99.90;;;;;;5090686;28;20384;-85
2022/06/27 01:55:43;;;;;;;14.80;13.63;;;19.50;99.90;;;;;;5093425;28;20379;-84
2022/06/27 01:58:10;;;;;;;16.20;14.17;;;19.50;99.90;;;;;;5092743;28;20373;-83
2022/06/27 02:00:36;;;;;;;15.02;13.73;;;19.40;99.90;;;;;;5092717;28;20412;-85
2022/06/27 02:03:02;;;;;;;14.07;12.88;;;19.40;99.90;;;;;;5091547;28;20494;-84
2022/06/27 02:05:28;;;;;;;14.52;13.02;;;19.40;99.90;;;;;;5093205;28;20412;-83
2022/06/27 02:07:56;;;;;;;14.90;13.57;;;19.30;99.90;;;;;;5091306;28;20380;-86
2022/06/27 02:10:22;;;;;;;15.35;14.02;;;19.30;99.90;;;;;;5092572;28;20786;-85
2022/06/27 02:12:49;;;;;;;14.00;12.77;;;19.30;99.90;;;;;;5091379;28;20389;-84
2022/06/27 02:15:15;;;;;;;14.80;13.50;;;19.30;99.90;;;;;;5090844;28;20475;-84
2022/06/27 02:17:40;;;;;;;14.63;13.32;;;19.20;99.90;;;;;;5090576;28;20483;-84
2022/06/27 02:20:09;;;;;;;14.33;12.93;;;19.20;99.90;;;;;;5091824;28;20373;-84
2022/06/27 02:22:35;;;;;;;15.13;13.77;;;19.20;99.90;;;;;;5092883;28;21048;-84
2022/06/27 02:25:00;;;;;;;14.98;13.70;;;19.10;99.90;;;;;;5090759;28;20388;-85
2022/06/27 02:27:29;;;;;;;14.33;13.13;;;19.10;99.90;;;;;;5089871;28;20380;-84
2022/06/27 02:29:54;;;;;;;14.48;13.35;;;19.10;99.90;;;;;;5090949;28;20846;-84
2022/06/27 02:32:20;;;;;;;15.13;13.93;;;19.10;99.90;;;;;;5089622;28;20491;-85
2022/06/27 02:34:50;;;;;;;14.68;13.38;;;19.10;99.90;;;;;;5089093;28;20949;-86
2022/06/27 02:37:17;;;;;;;14.43;13.23;;;19.00;99.90;;;;;;5089787;28;20437;-84
2022/06/27 02:39:46;;;;;;;15.48;14.27;;;19.00;99.90;;;;;;5088296;28;20432;-86
2022/06/27 02:42:13;;;;;;;14.90;13.73;;;18.90;99.90;;;;;;5088258;28;20385;-85
2022/06/27 02:44:39;;;;;;;14.55;13.35;;;18.90;99.90;;;;;;5089337;28;20805;-84
2022/06/27 02:47:05;;;;;;;15.07;13.77;;;18.90;99.90;;;;;;5088299;28;20377;-83
2022/06/27 02:49:31;;;;;;;15.27;14.07;;;18.90;99.90;;;;;;5088140;28;20429;-85
2022/06/27 02:52:25;;;;;;;15.17;13.87;;;19.00;99.90;;;;;;5089467;28;20430;-84
2022/06/27 02:54:59;;;;;;;14.40;13.30;;;18.90;99.90;;;;;;5087834;28;20403;-85
2022/06/27 02:58:02;;;;;;;15.10;13.88;;;19.00;99.90;;;;;;5089306;28;20377;-83
2022/06/27 03:00:32;;;;;;;15.07;13.98;;;18.90;99.90;;;;;;5093160;28;20411;-85
2022/06/27 03:02:59;;;;;;;14.68;13.57;;;19.00;99.90;;;;;;5091941;28;20894;-83
2022/06/27 03:05:25;;;;;;;15.32;14.13;;;19.00;99.90;;;;;;5092178;28;20373;-84
2022/06/27 03:07:51;;;;;;;14.90;13.60;;;19.00;99.90;;;;;;5092767;28;20380;-84
2022/06/27 03:10:16;;;;;;;15.45;14.15;;;19.00;99.90;;;;;;5077202;28;20382;-84
2022/06/27 03:12:42;;;;;;;13.95;12.75;;;19.00;99.90;;;;;;5072802;28;20427;-84
2022/06/27 03:15:09;;;;;;;15.00;13.77;;;19.10;99.90;;;;;;5072367;28;20463;-85
2022/06/27 03:17:35;;;;;;;15.32;14.13;;;19.10;99.90;;;;;;5073513;28;20409;-84
2022/06/27 03:20:00;;;;;;;14.80;13.60;;;19.10;99.90;;;;;;5073958;28;20374;-84
2022/06/27 03:22:27;;;;;;;14.53;13.43;;;19.10;99.90;;;;;;5072524;28;20894;-85
2022/06/27 03:24:52;;;;;;;13.85;12.85;;;19.20;99.90;;;;;;5072702;28;20396;-84
2022/06/27 03:27:18;;;;;;;13.77;12.60;;;19.20;99.90;;;;;;5073662;28;20374;-85
2022/06/27 03:29:44;;;;;;;14.53;13.13;;;19.30;99.90;;;;;;5090079;28;20438;-85
2022/06/27 03:32:10;;;;;;;14.63;13.32;;;19.30;99.90;;;;;;5092836;28;20433;-85
2022/06/27 03:34:35;;;;;;;15.90;13.67;;;19.40;99.90;;;;;;5092149;28;20418;-85
2022/06/27 03:37:01;;;;;;;13.52;12.32;;;19.50;99.90;;;;;;5091189;28;21172;-85
2022/06/27 03:39:27;;;;;;;15.55;13.90;;;19.50;99.90;;;;;;5092781;28;20404;-84
2022/06/27 03:41:53;;;;;;;16.97;12.90;;;19.60;99.90;;;;;;5092892;28;20840;-84
2022/06/27 03:44:18;;;;;;;13.32;12.10;;;19.70;99.90;;;;;;5091080;28;20439;-83
2022/06/27 03:46:44;;;;;;;13.73;12.63;;;19.70;99.90;;;;;;5091563;28;20391;-84
2022/06/27 03:51:54;;;;;;;33.70;14.00;;;19.90;99.90;;;;;;5092525;28;20387;-82
2022/06/27 03:54:19;;;;;;;15.75;12.27;;;20.00;99.90;;;;;;5091195;28;20377;-83
2022/06/27 03:56:45;;;;;;;14.43;13.03;;;20.00;99.90;;;;;;5087061;28;20824;-83
2022/06/27 03:59:12;;;;;;;13.63;12.52;;;20.10;99.90;;;;;;5071782;28;20501;-85
2022/06/27 04:01:37;;;;;;;11.93;11.02;;;20.20;99.90;;;;;;5071862;28;20390;-83
2022/06/27 04:04:03;;;;;;;13.65;12.45;;;20.30;99.90;;;;;;5072679;28;20460;-83
2022/06/27 04:06:29;;;;;;;13.77;12.63;;;20.40;99.90;;;;;;5073062;28;20421;-85
2022/06/27 04:08:54;;;;;;;13.32;12.32;;;20.40;99.90;;;;;;5074351;28;20956;-84
2022/06/27 04:11:20;;;;;;;14.43;13.13;;;20.40;99.90;;;;;;5086485;28;20880;-84
2022/06/27 04:13:46;;;;;;;13.27;12.23;;;20.40;99.90;;;;;;5091196;28;20907;-84
2022/06/27 04:16:12;;;;;;;48.80;16.10;;;20.50;99.90;;;;;;5090349;28;20392;-83
2022/06/27 04:18:38;;;;;;;14.27;12.75;;;20.50;99.90;;;;;;5092015;28;20937;-84
2022/06/27 04:21:04;;;;;;;13.73;12.43;;;20.50;99.90;;;;;;5090359;28;20380;-85
2022/06/27 04:23:30;;;;;;;14.47;12.70;;;20.60;99.90;;;;;;5091363;28;20504;-86
2022/06/27 04:25:56;;;;;;;13.50;12.50;;;20.70;99.90;;;;;;5091623;28;20950;-84
2022/06/27 04:28:22;;;;;;;14.03;12.83;;;20.70;99.90;;;;;;5091982;28;20451;-83
2022/06/27 04:30:48;;;;;;;13.52;12.43;;;20.80;99.90;;;;;;5091816;28;20739;-84
2022/06/27 04:33:14;;;;;;;13.50;12.30;;;21.00;99.90;;;;;;5090787;28;20467;-84
2022/06/27 04:35:46;;;;;;;13.63;12.32;;;21.20;99.90;;;;;;5090599;28;20444;-84
2022/06/27 04:38:12;;;;;;;14.27;12.67;;;21.30;99.90;;;;;;5090409;28;20421;-84
2022/06/27 04:40:38;;;;;;;15.05;13.57;;;21.50;99.90;;;;;;5091806;28;20391;-84
2022/06/27 04:43:04;;;;;;;16.27;12.83;;;21.70;99.90;;;;;;5091136;28;20400;-84
2022/06/27 04:45:33;;;;;;;13.40;12.20;;;21.90;99.90;;;;;;5091814;28;20407;-85
2022/06/27 04:48:00;;;;;;;12.40;11.40;;;22.20;99.90;;;;;;5089867;28;20385;-86
2022/06/27 04:50:26;;;;;;;11.65;10.75;;;22.60;99.90;;;;;;5089674;28;20384;-85
2022/06/27 04:52:52;;;;;;;12.10;11.03;;;23.00;99.90;;;;;;5089872;28;20376;-84
2022/06/27 04:55:19;;;;;;;12.30;11.30;;;23.40;99.90;;;;;;5090034;28;20754;-84
2022/06/27 04:57:48;;;;;;;12.13;10.88;;;23.60;99.90;;;;;;5089752;28;20402;-87
2022/06/27 05:00:15;;;;;;;12.80;10.90;;;23.80;99.90;;;;;;5089304;28;20885;-85
2022/06/27 05:02:41;;;;;;;11.23;10.10;;;24.10;99.90;;;;;;5089935;28;20395;-85
2022/06/27 05:05:08;;;;;;;10.53;9.63;;;24.60;99.90;;;;;;5089917;28;20385;-86
2022/06/27 05:07:34;;;;;;;22.88;10.90;;;25.20;99.90;;;;;;5090937;28;20441;-85
2022/06/27 05:10:00;;;;;;;10.40;9.40;;;25.80;99.90;;;;;;5088888;28;20384;-85
2022/06/27 05:12:26;;;;;;;10.37;9.37;;;26.00;99.90;;;;;;5090987;28;20364;-85
2022/06/27 05:14:54;;;;;;;11.82;9.15;;;26.30;99.90;;;;;;5089617;28;20380;-85
2022/06/27 05:17:21;;;;;;;13.60;9.15;;;26.50;99.90;;;;;;5090061;28;20369;-85
2022/06/27 05:19:46;;;;;;;43.88;11.45;;;26.80;99.90;;;;;;5088300;28;20439;-85
2022/06/27 05:22:12;;;;;;;9.30;8.40;;;27.20;99.90;;;;;;5087627;28;20408;-85
2022/06/27 05:24:39;;;;;;;9.63;8.82;;;27.40;99.90;;;;;;5090254;28;20397;-84
2022/06/27 05:27:05;;;;;;;8.98;8.23;;;27.40;99.90;;;;;;5088608;28;20415;-84
2022/06/27 05:29:32;;;;;;;15.03;8.53;;;27.30;99.90;;;;;;5090113;28;20815;-85
2022/06/27 05:31:58;;;;;;;13.17;8.33;;;27.30;99.90;;;;;;5070696;28;20388;-85
2022/06/27 05:34:24;;;;;;;9.45;8.27;;;27.30;99.90;;;;;;5069185;28;20394;-84
2022/06/27 05:36:50;;;;;;;15.67;8.87;;;27.50;99.90;;;;;;5088625;28;20865;-84
2022/06/27 05:39:15;;;;;;;10.75;8.43;;;27.60;99.90;;;;;;5089517;28;20376;-85
2022/06/27 05:41:43;;;;;;;10.43;8.43;;;27.60;99.90;;;;;;5089848;28;20427;-85
2022/06/27 05:44:09;;;;;;;11.73;7.95;;;27.60;99.90;;;;;;5088895;28;20411;-85
2022/06/27 05:46:37;;;;;;;9.20;8.10;;;27.70;99.90;;;;;;5088434;28;20433;-85
2022/06/27 05:49:03;;;;;;;13.77;7.85;;;27.80;99.90;;;;;;5088535;28;20553;-85
2022/06/27 05:51:29;;;;;;;9.40;8.30;;;27.90;99.90;;;;;;5088911;28;20395;-86
2022/06/27 05:54:00;;;;;;;9.15;8.25;;;28.00;99.90;;;;;;5089628;28;20368;-86
2022/06/27 05:56:28;;;;;;;8.97;8.07;;;28.00;99.90;;;;;;5090096;28;20391;-86
2022/06/27 05:58:55;;;;;;;8.55;7.85;;;28.00;99.90;;;;;;5088503;28;20392;-86
2022/06/27 06:01:22;;;;;;;8.75;8.02;;;28.00;99.90;;;;;;5089631;28;20407;-86
2022/06/27 06:03:48;;;;;;;8.70;7.88;;;28.10;99.90;;;;;;5089685;28;20401;-85
2022/06/27 06:06:15;;;;;;;8.48;7.50;;;28.00;99.90;;;;;;5088690;28;20874;-85
2022/06/27 06:08:43;;;;;;;22.15;8.27;;;28.00;99.90;;;;;;5088716;28;20396;-86
2022/06/27 06:11:09;;;;;;;8.63;7.35;;;28.20;99.90;;;;;;5088381;28;20383;-85
2022/06/27 06:13:35;;;;;;;9.68;7.47;;;28.40;99.90;;;;;;5071047;28;20367;-85
2022/06/27 06:16:01;;;;;;;7.57;6.80;;;28.70;99.90;;;;;;5069260;28;20378;-86
2022/06/27 06:18:30;;;;;;;8.88;7.05;;;29.10;99.90;;;;;;5069330;28;20768;-86
2022/06/27 06:20:56;;;;;;;9.95;6.70;;;29.50;99.90;;;;;;5070333;28;20385;-85
2022/06/27 06:23:21;;;;;;;8.25;6.55;;;29.90;99.90;;;;;;5068962;28;20401;-86
2022/06/27 06:25:47;;;;;;;24.70;7.90;;;30.30;99.90;;;;;;5070090;28;20382;-86
2022/06/27 06:28:13;;;;;;;9.88;6.50;;;30.60;99.90;;;;;;5070017;28;20371;-85
2022/06/27 06:30:39;;;;;;;9.30;6.30;;;30.70;99.90;;;;;;5068531;28;20374;-87
2022/06/27 06:33:05;;;;;;;7.13;5.90;;;31.00;99.90;;;;;;5068610;28;20383;-87
2022/06/27 06:35:33;;;;;;;7.05;6.38;;;31.20;99.90;;;;;;5070863;28;20397;-84
2022/06/27 06:38:03;;;;;;;7.43;6.03;;;31.40;99.80;;;;;;5070627;28;20374;-85
2022/06/27 06:40:31;;;;;;;6.53;5.63;;;31.50;99.00;;;;;;5089538;28;20377;-85
2022/06/27 06:43:00;;;;;;;6.90;6.20;;;31.50;99.30;;;;;;5089370;28;20817;-86
2022/06/27 06:45:29;;;;;;;6.78;6.07;;;31.80;98.00;;;;;;5087722;28;21357;-87
2022/06/27 06:47:55;;;;;;;8.40;6.00;;;31.80;97.60;;;;;;5089450;28;20376;-87
2022/06/27 06:50:21;;;;;;;10.63;6.15;;;31.90;98.20;;;;;;5088385;28;20867;-86
2022/06/27 06:52:51;;;;;;;12.97;6.20;;;32.00;98.20;;;;;;5089021;28;20819;-84
2022/06/27 06:55:21;;;;;;;6.72;5.70;;;32.20;99.80;;;;;;5088090;28;20874;-84
2022/06/27 06:57:50;;;;;;;6.67;5.97;;;31.40;99.90;;;;;;5089423;28;20384;-85
2022/06/27 07:00:17;;;;;;;6.57;5.90;;;32.10;99.90;;;;;;5088444;28;20465;-86
2022/06/27 07:02:43;;;;;;;6.15;5.40;;;;;;;;;;5088249;28;20416;-86
2022/06/27 07:05:11;;;;;;;17.83;6.20;;;;;;;;;;5088124;28;20392;-84
2022/06/27 07:07:39;;;;;;;8.32;5.60;;;;;;;;;;5087992;28;20805;-87
2022/06/27 07:10:06;;;;;;;7.97;5.03;;;32.60;96.50;;;;;;5087944;28;20399;-86
2022/06/27 07:12:33;;;;;;;5.70;5.28;;;32.80;95.50;;;;;;5087368;28;20476;-87
2022/06/27 07:15:00;;;;;;;10.75;5.50;;;;;;;;;;5084605;28;20763;-86
2022/06/27 07:17:27;;;;;;;9.77;5.30;;;;;;;;;;5078399;28;20382;-86
2022/06/27 07:19:54;;;;;;;9.77;5.15;;;;;;;;;;5075241;28;20408;-86
2022/06/27 07:22:20;;;;;;;7.35;5.25;;;34.10;93.50;;;;;;5070781;28;20366;-86
2022/06/27 07:24:50;;;;;;;8.80;4.97;;;34.10;94.00;;;;;;5073872;28;20402;-87
2022/06/27 07:27:17;;;;;;;5.22;4.70;;;34.20;94.20;;;;;;5072346;28;20823;-88
2022/06/27 07:29:43;;;;;;;6.05;4.47;;;34.00;93.00;;;;;;5067358;28;20898;-87
2022/06/27 07:32:09;;;;;;;14.90;5.40;;;34.00;92.40;;;;;;5074248;28;20393;-88
2022/06/27 07:34:36;;;;;;;8.23;4.88;;;33.90;93.30;;;;;;5068824;28;20955;-85
2022/06/27 07:37:03;;;;;;;6.95;5.05;;;33.80;92.70;;;;;;5066967;28;20435;-87
2022/06/27 07:39:28;;;;;;;6.25;4.97;;;33.80;92.60;;;;;;5078397;28;20388;-86
2022/06/27 07:41:54;;;;;;;5.50;4.67;;;33.90;92.30;;;;;;5080651;28;20401;-86
2022/06/27 07:44:22;;;;;;;5.75;4.78;;;33.90;92.10;;;;;;5071223;28;20412;-85
2022/06/27 07:46:48;;;;;;;5.10;4.70;;;33.70;91.40;;;;;;5088698;28;20400;-86
2022/06/27 07:49:14;;;;;;;5.95;5.35;;;33.30;91.70;;;;;;5091664;28;20372;-88
2022/06/27 07:51:39;;;;;;;27.63;6.82;;;33.30;92.60;;;;;;5095650;28;20548;-88
2022/06/27 07:54:07;;;;;;;10.93;5.22;;;33.30;92.10;;;;;;5081195;28;20879;-88
2022/06/27 07:56:34;;;;;;;5.25;4.82;;;33.30;92.40;;;;;;5076298;28;20425;-87
2022/06/27 07:59:00;;;;;;;6.40;4.70;;;33.30;92.70;;;;;;5070793;28;20876;-88
2022/06/27 08:01:28;;;;;;;5.78;4.68;;;33.40;93.20;;;;;;5070831;28;20374;-88
2022/06/27 08:03:54;;;;;;;5.95;4.57;;;33.40;93.10;;;;;;5078889;28;20398;-86
2022/06/27 08:06:25;;;;;;;5.25;4.80;;;33.60;92.20;;;;;;5070626;28;20397;-85
2022/06/27 08:08:54;;;;;;;4.75;4.35;;;33.60;90.30;;;;;;5095776;28;20369;-88
2022/06/27 08:11:24;;;;;;;4.95;4.45;;;33.60;91.80;;;;;;5088708;28;20381;-85
2022/06/27 08:13:52;;;;;;;5.40;4.70;;;33.50;91.30;;;;;;5090004;28;20394;-84
2022/06/27 08:16:20;;;;;;;8.63;4.80;;;33.60;91.60;;;;;;5090912;28;20378;-85
2022/06/27 08:18:48;;;;;;;5.10;4.38;;;33.80;90.80;;;;;;5089734;28;20384;-86
2022/06/27 08:21:21;;;;;;;4.80;4.18;;;33.80;90.00;;;;;;5090581;28;20392;-88
2022/06/27 08:23:48;;;;;;;6.27;4.47;;;34.00;90.60;;;;;;5089712;28;20407;-87
2022/06/27 08:26:14;;;;;;;6.68;4.60;;;34.10;90.90;;;;;;5076794;28;20426;-84
2022/06/27 08:28:41;;;;;;;5.00;4.40;;;34.20;88.60;;;;;;5070489;28;20393;-85
2022/06/27 08:31:10;;;;;;;4.43;4.03;;;34.10;89.10;;;;;;5070123;28;20384;-85
2022/06/27 08:33:36;;;;;;;8.13;4.40;;;34.00;88.40;;;;;;5070543;28;20392;-87
2022/06/27 08:36:03;;;;;;;5.50;4.10;;;34.00;90.10;;;;;;5070898;28;20805;-86
2022/06/27 08:38:32;;;;;;;37.00;6.45;;;34.20;91.00;;;;;;5073173;28;20463;-87
2022/06/27 08:40:58;;;;;;;5.68;3.50;;;34.20;87.50;;;;;;5089060;28;20388;-88
2022/06/27 08:43:26;;;;;;;11.70;4.03;;;33.90;87.10;;;;;;5089341;28;20408;-88
2022/06/27 08:45:53;;;;;;;6.03;3.90;;;33.80;89.10;;;;;;5083229;28;20400;-85
2022/06/27 08:48:19;;;;;;;7.67;4.07;;;33.90;87.40;;;;;;5089433;28;20472;-85
2022/06/27 08:50:48;;;;;;;8.57;3.85;;;33.80;87.10;;;;;;5089226;28;20405;-86
2022/06/27 08:53:15;;;;;;;5.07;3.50;;;33.60;86.00;;;;;;5078538;28;20568;-89
2022/06/27 08:55:46;;;;;;;3.88;3.40;;;33.50;86.00;;;;;;5084803;28;20388;-85
2022/06/27 08:58:13;;;;;;;14.82;4.45;;;33.90;88.70;;;;;;5081926;28;20408;-88
2022/06/27 09:00:45;;;;;;;4.65;3.60;;;34.00;87.60;;;;;;5089821;28;20384;-88
2022/06/27 09:03:21;;;;;;;4.70;3.38;;;34.10;84.40;;;;;;5068765;28;20506;-86
2022/06/27 09:06:04;;;;;;;4.80;3.50;;;34.20;84.40;;;;;;5074533;28;20412;-87
2022/06/27 09:08:33;;;;;;;4.83;3.20;;;33.80;82.90;;;;;;5082946;28;20834;-84
2022/06/27 09:11:00;;;;;;;4.32;3.00;;;33.70;82.00;;;;;;5086648;28;20392;-87
2022/06/27 09:13:27;;;;;;;8.10;3.42;;;33.70;82.10;;;;;;5075170;28;20417;-86
2022/06/27 09:16:04;;;;;;;6.68;3.15;;;33.80;83.50;;;;;;5070349;28;20374;-86
2022/06/27 09:18:33;;;;;;;7.75;3.45;;;34.10;83.90;;;;;;5071648;28;20420;-86
2022/06/27 09:21:05;;;;;;;5.63;3.03;;;34.20;85.10;;;;;;5069762;28;20385;-87
2022/06/27 09:23:40;;;;;;;5.45;3.03;;;34.50;83.60;;;;;;5081413;28;20400;-86
2022/06/27 09:26:10;;;;;;;5.18;3.53;;;34.40;79.60;;;;;;5069200;28;20764;-86
2022/06/27 09:28:41;;;;;;;3.47;3.17;;;34.10;81.80;;;;;;5074130;28;20742;-87
2022/06/27 09:31:10;;;;;;;16.60;4.57;;;33.90;81.10;;;;;;5078564;28;20392;-85
2022/06/27 09:33:38;;;;;;;5.07;2.88;;;34.00;97.20;;;;;;5088432;28;20377;-85
2022/06/27 09:36:15;;;;;;;6.00;3.03;;;33.80;96.20;;;;;;5079124;28;20772;-87
2022/06/27 09:38:42;;;;;;;3.95;2.90;;;33.90;95.20;;;;;;5073132;28;20384;-86
2022/06/27 09:41:14;;;;;;;4.30;3.00;;;34.00;95.50;;;;;;5088409;28;20737;-86
2022/06/27 09:43:46;;;;;;;3.80;3.40;;;34.00;97.50;;;;;;5088745;28;20511;-87
2022/06/27 09:46:13;;;;;;;3.53;3.17;;;34.00;98.00;;;;;;5089299;28;20481;-84
2022/06/27 09:48:44;;;;;;;3.22;2.80;;;34.30;99.90;;;;;;5088242;28;20376;-87
2022/06/27 09:51:14;;;;;;;6.33;2.97;;;34.20;98.90;;;;;;5088833;28;20388;-88
2022/06/27 09:53:44;;;;;;;3.08;2.78;;;34.20;99.10;;;;;;5089544;28;20433;-87
2022/06/27 09:56:14;;;;;;;10.60;3.63;;;34.30;99.30;;;;;;5090205;28;20909;-87
2022/06/27 09:58:41;;;;;;;4.30;3.17;;;34.40;99.30;;;;;;5090360;28;20461;-87
2022/06/27 10:01:10;;;;;;;3.95;3.45;;;34.50;99.10;;;;;;5090019;28;20372;-87
2022/06/27 10:03:36;;;;;;;4.57;2.95;;;34.50;99.90;;;;;;5089224;28;20762;-87
2022/06/27 10:06:03;;;;;;;7.07;3.28;;;34.50;99.90;;;;;;5089859;28;20400;-87
2022/06/27 10:08:32;;;;;;;24.98;4.65;;;34.40;99.90;;;;;;5089616;28;20373;-88
2022/06/27 10:11:06;;;;;;;5.93;3.10;;;34.40;99.90;;;;;;5087630;28;20412;-86
2022/06/27 10:13:33;;;;;;;6.03;2.95;;;34.40;99.90;;;;;;5086991;28;20388;-88
2022/06/27 10:16:05;;;;;;;4.40;3.00;;;34.40;99.90;;;;;;5086284;28;20369;-86
2022/06/27 10:18:51;;;;;;;6.13;3.20;;;;;;;;;;5088635;28;20372;-87
2022/06/27 10:21:25;;;;;;;5.03;3.30;;;;;;;;;;5088020;28;20380;-88
2022/06/27 10:24:11;;;;;;;7.07;3.10;;;;;;;;;;5088441;28;20392;-87
2022/06/27 10:26:41;;;;;;;3.28;3.03;;;;;;;;;;5087042;28;20399;-89
2022/06/27 10:29:26;;;;;;;3.42;3.00;;;;;;;;;;5086748;28;20456;-87
2022/06/27 10:31:52;;;;;;;4.47;3.30;;;;;;;;;;5077781;28;21003;-86
2022/06/27 10:34:38;;;;;;;3.50;3.20;;;35.10;99.60;;;;;;5069312;28;20370;-86
2022/06/27 10:37:25;;;;;;;13.40;3.67;;;34.80;97.60;;;;;;5067375;28;20475;-90
2022/06/27 10:39:52;;;;;;;4.32;2.67;;;34.60;96.60;;;;;;5079615;28;20467;-87
2022/06/27 10:42:46;;;;;;;4.60;2.77;;;34.70;96.50;;;;;;5072485;28;20872;-88
2022/06/27 10:45:30;;;;;;;5.20;3.00;;;34.70;98.80;;;;;;5068322;28;20398;-87
2022/06/27 10:47:58;;;;;;;7.67;3.60;;;34.50;99.90;;;;;;5080869;28;20370;-88
2022/06/27 10:50:29;;;;;;;5.95;2.95;;;34.30;99.90;;;;;;5085581;28;20377;-90
2022/06/27 10:53:19;;;;;;;4.30;2.85;;;34.60;98.60;;;;;;5074948;28;20389;-87
2022/06/27 10:55:46;;;;;;;4.07;2.90;;;34.50;97.80;;;;;;5073233;28;20389;-88
2022/06/27 10:58:23;;;;;;;3.95;2.58;;;34.60;97.70;;;;;;5077629;28;20503;-88
2022/06/27 11:01:10;;;;;;;6.18;2.58;;;34.50;97.40;;;;;;5070863;28;20366;-85
2022/06/27 11:03:41;;;;;;;3.37;2.77;;;34.40;96.30;;;;;;5082513;28;20400;-87
2022/06/27 11:06:10;;;;;;;4.68;2.70;;;34.30;97.40;;;;;;5075273;28;20411;-88
2022/06/27 11:08:37;;;;;;;3.15;2.85;;;34.50;98.00;;;;;;5076658;28;20869;-88
2022/06/27 11:11:07;;;;;;;3.40;2.70;;;34.70;97.80;;;;;;5090354;28;20383;-88
2022/06/27 11:13:46;;;;;;;7.13;2.65;;;34.70;97.40;;;;;;5067352;28;20406;-86
2022/06/27 11:16:22;;;;;;;6.20;2.80;;;34.70;96.90;;;;;;5067559;28;20752;-85
2022/06/27 11:18:53;;;;;;;3.28;2.75;;;34.50;96.90;;;;;;5069036;28;20385;-88
2022/06/27 11:21:38;;;;;;;4.32;2.53;;;34.40;97.50;;;;;;5070584;28;20440;-88
2022/06/27 11:24:10;;;;;;;5.57;2.80;;;34.30;97.90;;;;;;5098123;28;20400;-87
2022/06/27 11:26:48;;;;;;;2.38;2.15;;;34.40;96.90;;;;;;5097992;28;20384;-88
2022/06/27 11:32:12;;;;;;;3.72;2.05;;;34.70;96.50;;;;;;5088799;28;20389;-86
2022/06/27 11:34:43;;;;;;;2.70;2.13;;;34.90;96.40;;;;;;5094472;28;20746;-88
2022/06/27 11:37:15;;;;;;;2.45;2.10;;;35.10;97.00;;;;;;5095324;28;20380;-88
2022/06/27 11:39:41;;;;;;;2.60;2.22;;;35.40;96.80;;;;;;5093782;28;20395;-89
2022/06/27 11:42:10;;;;;;;2.58;2.22;;;35.70;99.90;;;;;;5091291;28;20416;-87
2022/06/27 11:44:55;;;;;;;3.90;2.30;;;35.90;99.40;;;;;;5096012;28;20955;-86
2022/06/27 11:47:26;;;;;;;5.53;1.92;;;36.10;99.80;;;;;;5087696;28;20401;-84
2022/06/27 11:50:02;;;;;;;2.30;2.00;;;;;;;;;;5081332;28;20473;-85
2022/06/27 11:52:36;;;;;;;4.80;2.60;;;;;;;;;;5070986;28;20393;-87
2022/06/27 11:55:15;;;;;;;2.55;2.03;;;35.40;99.90;;;;;;5070425;28;20437;-87
2022/06/27 11:57:51;;;;;;;3.13;2.00;;;;;;;;;;5071715;28;21006;-88
2022/06/27 12:00:32;;;;;;;3.90;2.05;;;;;;;;;;5075806;28;20382;-88
2022/06/27 12:02:59;;;;;;;4.10;2.10;;;;;;;;;;5074043;28;20382;-87
2022/06/27 12:05:26;;;;;;;2.70;2.30;;;;;;;;;;5071191;28;20469;-90
2022/06/27 12:08:06;;;;;;;2.40;2.20;;;35.80;99.90;;;;;;5070583;28;20413;-89
2022/06/27 12:11:17;;;;;;;3.60;2.50;;;35.90;99.90;;;;;;5086100;28;20480;-88
2022/06/27 12:13:45;;;;;;;3.90;2.10;;;36.00;99.90;;;;;;5071085;28;20390;-87
2022/06/27 12:16:17;;;;;;;3.30;2.25;;;36.10;99.90;;;;;;5070234;28;20374;-89
2022/06/27 12:18:51;;;;;;;2.90;2.10;;;36.10;99.80;;;;;;5076713;28;20403;-89
2022/06/27 12:21:18;;;;;;;4.57;2.20;;;36.10;99.90;;;;;;5075784;28;20390;-87
2022/06/27 12:23:44;;;;;;;3.33;2.38;;;36.10;99.90;;;;;;5069583;28;20514;-87
2022/06/27 12:26:14;;;;;;;8.18;2.20;;;36.30;99.90;;;;;;5074859;28;20385;-89
2022/06/27 12:28:43;;;;;;;6.03;2.40;;;36.20;99.80;;;;;;5072962;28;20410;-89
2022/06/27 12:31:12;;;;;;;2.38;2.05;;;;;;;;;;5072624;28;20985;-88
2022/06/27 12:33:45;;;;;;;4.85;2.30;;;;;;;;;;5072666;28;20379;-90
2022/06/27 12:36:21;;;;;;;;;;;;;;;;;;;;;
2022/06/27 12:38:51;;;;;;;2.72;2.10;;;;;;;;;;5080327;28;20381;-90
2022/06/27 12:41:24;;;;;;;41.15;6.05;;;;;;;;;;5091062;28;20474;-89
2022/06/27 12:43:53;;;;;;;5.45;2.33;;;;;;;;;;5091578;28;20401;-89
2022/06/27 12:46:19;;;;;;;2.30;1.98;;;;;;;;;;5091564;28;20472;-89
2022/06/27 12:48:48;;;;;;;2.42;1.75;;;;;;;;;;5090981;28;20383;-90
2022/06/27 12:51:20;;;;;;;2.70;2.03;;;;;;;;;;5092319;28;21189;-90
2022/06/27 12:53:48;;;;;;;5.38;2.45;;;;;;;;;;5091425;28;20401;-89
2022/06/27 12:56:14;;;;;;;3.00;2.10;;;;;;;;;;5079600;28;20417;-89
2022/06/27 12:58:40;;;;;;;7.80;2.60;;;36.90;98.70;;;;;;5070372;28;20362;-88
2022/06/27 13:01:06;;;;;;;4.60;2.23;;;37.00;98.60;;;;;;5073140;28;20681;-90
2022/06/27 13:03:32;;;;;;;2.53;2.13;;;36.80;97.40;;;;;;5071293;28;20471;-90